Time;durP1;ratioP1;P1;durP2;ratioP2;P2;SDS_P1;SDS_P2;PMS_P1;PMS_P2;Temp;Humidity;BMP_temperature;BMP_pressure;BME280_temperature;BME280_humidity;BME280_pressure;Samples;Min_cycle;Max_cycle;Signal;HPM_P1;HPM_P2
2022/02/05 00:03:05;;;;;;;;;;;3.00;99.90;;;;;;5074971;28;20003;-76
2022/02/05 00:08:17;;;;;;;;;;;2.80;99.90;;;;;;5073545;28;19999;-74
2022/02/05 00:14:25;;;;;;;;;;;2.60;99.90;;;;;;5073155;28;19933;-73
2022/02/05 00:41:21;;;;;;;;;;;1.80;99.90;;;;;;5072939;28;20272;-74
2022/02/05 00:43:36;;;;;;;;;;;1.70;99.90;;;;;;5070160;28;19908;-73
2022/02/05 00:46:01;;;;;;;;;;;1.40;99.90;;;;;;5072620;28;19916;-76
2022/02/05 00:48:27;;;;;;;;;;;1.30;99.90;;;;;;5072846;28;19909;-73
2022/02/05 00:50:58;;;;;;;;;;;1.10;99.90;;;;;;5072776;28;20272;-73
2022/02/05 00:53:31;;;;;;;;;;;1.20;99.90;;;;;;5072705;28;19916;-75
2022/02/05 00:56:48;;;;;;;;;;;1.10;99.90;;;;;;5072655;28;19951;-73
2022/02/05 00:58:48;;;;;;;;;;;1.00;99.90;;;;;;5064857;28;19913;-73
2022/02/05 01:01:14;;;;;;;;;;;0.80;99.90;;;;;;5071982;28;19919;-75
2022/02/05 01:03:39;;;;;;;;;;;1.00;99.90;;;;;;5072285;28;19909;-73
2022/02/05 01:06:06;;;;;;;;;;;0.90;99.90;;;;;;5072306;28;19908;-73
2022/02/05 01:08:32;;;;;;;;;;;0.80;99.90;;;;;;5072400;28;19915;-74
2022/02/05 01:10:57;;;;;;;;;;;0.90;99.90;;;;;;5072164;28;19908;-73
2022/02/05 01:13:24;;;;;;;;;;;1.20;99.90;;;;;;5071875;28;19916;-73
2022/02/05 01:18:25;;;;;;;;;;;1.40;99.90;;;;;;5071248;28;19919;-74
2022/02/05 01:21:07;;;;;;;;;;;1.40;99.90;;;;;;5072159;28;19915;-73
2022/02/05 01:23:42;;;;;;;;;;;1.40;99.90;;;;;;5071534;28;19966;-74
2022/02/05 01:27:00;;;;;;;;;;;1.30;99.90;;;;;;5071967;28;19999;-73
2022/02/05 01:29:00;;;;;;;;;;;1.10;99.90;;;;;;5051683;28;19909;-73
2022/02/05 01:31:31;;;;;;;;;;;0.90;99.90;;;;;;5073902;28;19915;-73
2022/02/05 01:34:08;;;;;;;;;;;0.60;99.90;;;;;;5071712;28;20062;-73
2022/02/05 02:05:29;;;;;;;;;;;0.60;99.90;;;;;;5071596;28;19916;-74
2022/02/05 02:13:20;;;;;;;;;;;0.30;99.90;;;;;;5073521;28;19909;-73
2022/02/05 02:21:47;;;;;;;;;;;-0.30;99.90;;;;;;5071670;28;19920;-73
2022/02/05 02:29:08;;;;;;;;;;;-0.80;99.90;;;;;;5070839;28;19908;-73
2022/02/05 02:31:39;;;;;;;;;;;-0.90;99.90;;;;;;5071028;28;19909;-73
2022/02/05 02:34:09;;;;;;;;;;;-0.90;99.90;;;;;;5070864;28;19913;-73
2022/02/05 02:39:43;;;;;;;;;;;-1.10;99.90;;;;;;5067892;28;19909;-73
2022/02/05 02:41:58;;;;;;;;;;;-1.20;99.90;;;;;;5064661;28;20416;-73
2022/02/05 02:44:23;;;;;;;;;;;-1.30;99.90;;;;;;5070954;28;20361;-73
2022/02/05 02:46:49;;;;;;;;;;;-1.30;99.90;;;;;;5070889;28;19909;-73
2022/02/05 02:49:21;;;;;;;;;;;-1.40;99.90;;;;;;5070977;28;20339;-73
2022/02/05 02:59:52;;;;;;;;;;;-1.40;99.90;;;;;;5071550;28;19908;-73
2022/02/05 03:02:21;;;;;;;;;;;-1.40;99.90;;;;;;5075713;28;19916;-73
2022/02/05 03:04:47;;;;;;;;;;;-1.50;99.90;;;;;;5070315;28;20190;-73
2022/02/05 03:07:13;;;;;;;;;;;-1.50;99.90;;;;;;5070876;28;19919;-73
2022/02/05 03:09:39;;;;;;;;;;;-1.60;99.90;;;;;;5070776;28;19995;-73
2022/02/05 03:12:04;;;;;;;;;;;-1.60;99.90;;;;;;5070676;28;19909;-73
2022/02/05 03:14:30;;;;;;;;;;;-1.50;99.90;;;;;;5070577;28;20280;-73
2022/02/05 03:17:03;;;;;;;;;;;-1.60;99.90;;;;;;5070605;28;20384;-74
2022/02/05 03:19:28;;;;;;;;;;;-1.60;99.90;;;;;;5070767;28;19908;-73
2022/02/05 03:21:54;;;;;;;;;;;-1.70;99.90;;;;;;5070615;28;19912;-73
2022/02/05 03:24:19;;;;;;;;;;;-1.80;99.90;;;;;;5070431;28;19913;-74
2022/02/05 03:26:45;;;;;;;;;;;-1.80;99.90;;;;;;5070784;28;19977;-73
2022/02/05 03:29:12;;;;;;;;;;;-1.80;99.90;;;;;;5071247;28;19908;-73
2022/02/05 03:31:38;;;;;;;;;;;-1.80;99.90;;;;;;5076628;28;19908;-73
2022/02/05 03:34:05;;;;;;;;;;;-1.70;99.90;;;;;;5070325;28;20292;-74
2022/02/05 03:36:32;;;;;;;;;;;-1.80;99.90;;;;;;5070543;28;19908;-73
2022/02/05 03:38:58;;;;;;;;;;;-1.80;99.90;;;;;;5071083;28;19913;-73
2022/02/05 03:41:23;;;;;;;;;;;-1.70;99.90;;;;;;5072762;28;20391;-73
2022/02/05 03:43:49;;;;;;;;;;;-1.70;99.90;;;;;;5073877;28;19915;-74
2022/02/05 03:46:14;;;;;;;;;;;-1.70;99.90;;;;;;5067442;28;19923;-73
2022/02/05 03:48:40;;;;;;;;;;;-1.70;99.90;;;;;;5072831;28;20369;-74
2022/02/05 03:51:05;;;;;;;;;;;-1.70;99.90;;;;;;5073922;28;20361;-73
2022/02/05 03:53:30;;;;;;;;;;;-1.80;99.90;;;;;;5073988;28;19908;-73
2022/02/05 03:55:56;;;;;;;;;;;-1.80;99.90;;;;;;5074046;28;19944;-74
2022/02/05 03:58:21;;;;;;;;;;;-1.80;99.90;;;;;;5072636;28;20362;-73
2022/02/05 04:00:47;;;;;;;;;;;-1.80;99.90;;;;;;5079447;28;19908;-73
2022/02/05 04:03:13;;;;;;;;;;;-1.70;99.90;;;;;;5074988;28;19962;-74
2022/02/05 04:05:39;;;;;;;;;;;-1.70;99.90;;;;;;5073662;28;19916;-73
2022/02/05 04:08:07;;;;;;;;;;;-1.80;99.90;;;;;;5073974;28;20315;-74
2022/02/05 04:10:42;;;;;;;;;;;-1.70;99.90;;;;;;5078609;28;19958;-73
2022/02/05 04:16:07;;;;;;;;;;;-1.30;99.90;;;;;;5090795;28;19923;-74
2022/02/05 04:18:33;;;;;;;;;;;-1.20;99.90;;;;;;5093389;28;19912;-75
2022/02/05 04:20:58;;;;;;;;;;;-1.00;99.90;;;;;;5093556;28;19920;-73
2022/02/05 04:23:24;;;;;;;;;;;-0.70;99.90;;;;;;5093498;28;20119;-75
2022/02/05 04:25:49;;;;;;;;;;;-0.50;99.90;;;;;;5094667;28;19904;-74
2022/02/05 04:28:15;;;;;;;;;;;-0.40;99.90;;;;;;5095048;28;19909;-76
2022/02/05 04:30:40;;;;;;;;;;;-0.30;99.90;;;;;;5102865;28;19904;-76
2022/02/05 04:33:06;;;;;;;;;;;-0.10;99.90;;;;;;5101636;28;19907;-76
2022/02/05 04:35:31;;;;;;;;;;;0.00;99.90;;;;;;5099066;28;19920;-76
2022/02/05 04:37:59;;;;;;;;;;;0.10;99.90;;;;;;5098881;28;19908;-76
2022/02/05 04:43:16;;;;;;;;;;;0.20;99.90;;;;;;5098940;28;19911;-76
2022/02/05 05:02:23;;;;;;;;;;;0.40;99.90;;;;;;5097458;28;19904;-76
2022/02/05 05:10:03;;;;;;;;;;;0.30;99.90;;;;;;5098647;28;19903;-76
2022/02/05 05:20:22;;;;;;;;;;;0.60;99.90;;;;;;5091837;28;19938;-75
2022/02/05 05:22:48;;;;;;;;;;;0.60;99.90;;;;;;5098068;28;19901;-76
2022/02/05 05:25:13;;;;;;;;;;;0.60;99.90;;;;;;5097942;28;19908;-75
2022/02/05 05:27:39;;;;;;;;;;;0.70;99.90;;;;;;5098127;28;19920;-76
2022/02/05 05:30:05;;;;;;;;;;;0.70;99.90;;;;;;5095805;28;19912;-75
2022/02/05 05:32:31;;;;;;;;;;;0.70;99.90;;;;;;5098752;28;19922;-76
2022/02/05 05:34:56;;;;;;;;;;;0.50;99.90;;;;;;5097084;28;19900;-76
2022/02/05 05:37:22;;;;;;;;;;;0.40;99.90;;;;;;5097754;28;19942;-75
2022/02/05 05:39:49;;;;;;;;;;;0.20;99.90;;;;;;5097847;28;19903;-76
2022/02/05 05:42:20;;;;;;;;;;;0.20;99.90;;;;;;5097162;28;19901;-76
2022/02/05 05:47:35;;;;;;;;;;;0.10;99.90;;;;;;5097625;28;19908;-75
2022/02/05 05:50:35;;;;;;;;;;;0.20;99.90;;;;;;5097796;28;19901;-75
2022/02/05 05:52:57;;;;;;;;;;;0.40;99.90;;;;;;5097423;28;19901;-75
2022/02/05 05:55:22;;;;;;;;;;;0.40;99.90;;;;;;5097410;28;19908;-76
2022/02/05 05:57:48;;;;;;;;;;;0.60;99.90;;;;;;5097632;28;19905;-75
2022/02/05 06:00:14;;;;;;;;;;;0.60;99.90;;;;;;5096444;28;19897;-76
2022/02/05 06:02:39;;;;;;;;;;;0.50;99.90;;;;;;5096850;28;19901;-76
2022/02/05 06:05:05;;;;;;;;;;;0.40;99.90;;;;;;5097101;28;19901;-76
2022/02/05 06:07:30;;;;;;;;;;;0.40;99.90;;;;;;5097366;28;19928;-76
2022/02/05 06:09:56;;;;;;;;;;;0.40;99.90;;;;;;5097452;28;19897;-76
2022/02/05 06:12:21;;;;;;;;;;;0.40;99.90;;;;;;5097185;28;19966;-76
2022/02/05 06:14:47;;;;;;;;;;;0.40;99.90;;;;;;5097255;28;19912;-76
2022/02/05 06:17:16;;;;;;;;;;;0.40;99.90;;;;;;5096955;28;20006;-75
2022/02/05 06:19:42;;;;;;;;;;;0.40;99.90;;;;;;5097192;28;19901;-76
2022/02/05 06:22:08;;;;;;;;;;;0.50;99.90;;;;;;5097115;28;19919;-75
2022/02/05 06:24:33;;;;;;;;;;;0.40;99.90;;;;;;5092294;28;19916;-75
2022/02/05 06:26:59;;;;;;;;;;;0.40;99.90;;;;;;5073166;28;20290;-73
2022/02/05 06:29:24;;;;;;;;;;;0.40;99.90;;;;;;5073521;28;20360;-73
2022/02/05 06:31:50;;;;;;;;;;;0.40;99.90;;;;;;5071998;28;19908;-73
2022/02/05 06:34:15;;;;;;;;;;;0.40;99.90;;;;;;5071957;28;19915;-74
2022/02/05 06:36:41;;;;;;;;;;;0.40;99.90;;;;;;5072073;28;19913;-73
2022/02/05 06:39:06;;;;;;;;;;;0.40;99.90;;;;;;5072183;28;19908;-74
2022/02/05 06:41:32;;;;;;;;;;;0.30;99.90;;;;;;5072032;28;19912;-74
2022/02/05 06:43:57;;;;;;;;;;;0.20;99.90;;;;;;5071563;28;20371;-73
2022/02/05 06:46:23;;;;;;;;;;;0.10;99.90;;;;;;5071992;28;19912;-73
2022/02/05 06:48:48;;;;;;;;;;;0.10;99.90;;;;;;5072166;28;19931;-73
2022/02/05 06:51:14;;;;;;;;;;;0.00;99.90;;;;;;5071727;28;19909;-74
2022/02/05 06:53:39;;;;;;;;;;;-0.10;99.90;;;;;;5071277;28;19908;-73
2022/02/05 06:56:05;;;;;;;;;;;-0.30;99.90;;;;;;5071683;28;19909;-73
2022/02/05 06:58:30;;;;;;;;;;;-0.30;99.90;;;;;;5071419;28;20271;-74
2022/02/05 07:00:56;;;;;;;;;;;-0.50;99.90;;;;;;5073629;28;20442;-76
2022/02/05 07:03:21;;;;;;;;;;;-0.50;99.90;;;;;;5072731;28;19908;-74
2022/02/05 07:05:47;;;;;;;;;;;-0.50;99.90;;;;;;5072719;28;19954;-73
2022/02/05 07:08:13;;;;;;;;;;;-0.50;99.90;;;;;;5072432;28;20292;-75
2022/02/05 07:10:39;;;;;;;;;;;-0.60;99.90;;;;;;5072311;28;19908;-74
2022/02/05 07:13:18;;;;;;;;;;;-0.60;99.90;;;;;;5071305;28;19908;-76
2022/02/05 07:16:34;;;;;;;;;;;-0.60;99.90;;;;;;5071124;28;19913;-74
2022/02/05 07:18:46;;;;;;;;;;;-0.60;99.90;;;;;;5065264;28;19920;-74
2022/02/05 07:21:19;;;;;;;;;;;-0.50;99.90;;;;;;5075462;28;19935;-74
2022/02/05 07:29:14;;;;;;;;;;;-0.60;99.90;;;;;;5069026;28;19955;-74
2022/02/05 07:31:50;;;;;;;;;;;-0.60;99.90;;;;;;5086023;28;19954;-74
2022/02/05 07:34:17;;;;;;;;;;;-0.40;99.90;;;;;;5073831;28;20377;-72
2022/02/05 07:36:43;;;;;;;;;;;-0.40;99.90;;;;;;5074192;28;19916;-72
2022/02/05 07:39:09;;;;;;;;;;;-0.40;99.90;;;;;;5074099;28;19915;-71
2022/02/05 07:41:36;;;;;;;;;;;-0.40;99.90;;;;;;5073807;28;19909;-72
2022/02/05 07:44:02;;;;;;;;;;;-0.30;99.90;;;;;;5073655;28;19916;-72
2022/02/05 07:46:28;;;;;;;;;;;-0.30;99.90;;;;;;5064837;28;20296;-72
2022/02/05 07:48:53;;;;;;;;;;;-0.20;99.90;;;;;;5056346;28;19921;-73
2022/02/05 07:51:19;;;;;;;;;;;-0.10;99.90;;;;;;5057133;28;19951;-72
2022/02/05 07:53:45;;;;;;;;;;;-0.10;99.90;;;;;;5055476;28;19909;-72
2022/02/05 07:56:11;;;;;;;;;;;0.00;99.90;;;;;;5055413;28;19908;-73
2022/02/05 07:58:37;;;;;;;;;;;0.10;99.90;;;;;;5057405;28;20376;-73
2022/02/05 08:01:03;;;;;;;;;;;0.20;99.90;;;;;;5063485;28;20288;-73
2022/02/05 08:03:28;;;;;;;;;;;0.30;99.90;;;;;;5054162;28;19916;-73
2022/02/05 08:05:54;;;;;;;;;;;0.40;99.90;;;;;;5055835;28;19909;-74
2022/02/05 08:08:24;;;;;;;;;;;0.40;99.90;;;;;;5057064;28;19908;-73
2022/02/05 08:10:55;;;;;;;;;;;0.40;99.90;;;;;;5057798;28;20270;-72
2022/02/05 08:13:22;;;;;;;;;;;0.50;99.90;;;;;;5055793;28;19916;-73
2022/02/05 08:15:53;;;;;;;;;;;0.50;99.90;;;;;;5055258;28;19923;-72
2022/02/05 08:18:18;;;;;;;;;;;0.70;99.90;;;;;;5060913;28;19970;-72
2022/02/05 08:20:44;;;;;;;;;;;0.80;99.90;;;;;;5069297;28;19912;-73
2022/02/05 08:23:09;;;;;;;;;;;0.90;99.90;;;;;;5072199;28;19909;-72
2022/02/05 08:25:35;;;;;;;;;;;1.00;99.90;;;;;;5072616;28;19908;-73
2022/02/05 08:28:01;;;;;;;;;;;1.30;99.90;;;;;;5078495;28;19908;-73
2022/02/05 08:30:26;;;;;;;;;;;1.70;99.90;;;;;;5071248;28;19908;-73
2022/02/05 08:32:52;;;;;;;;;;;3.50;99.90;;;;;;5068808;28;19930;-73
2022/02/05 08:35:19;;;;;;;;;;;5.00;99.90;;;;;;5067610;28;19908;-72
2022/02/05 08:37:47;;;;;;;;;;;5.10;99.90;;;;;;5065921;28;19912;-75
2022/02/05 08:40:13;;;;;;;;;;;6.40;99.90;;;;;;5061312;28;19913;-74
2022/02/05 08:42:38;;;;;;;;;;;6.70;99.90;;;;;;5065242;28;19915;-73
2022/02/05 08:45:04;;;;;;;;;;;5.60;99.90;;;;;;5067459;28;19909;-73
2022/02/05 08:47:31;;;;;;;;;;;5.40;99.90;;;;;;5069204;28;19911;-73
2022/02/05 08:49:56;;;;;;;;;;;4.50;99.90;;;;;;5058783;28;20380;-73
2022/02/05 08:52:22;;;;;;;;;;;4.30;99.90;;;;;;5065837;28;19913;-73
2022/02/05 08:54:48;;;;;;;;;;;5.60;99.90;;;;;;5067606;28;19916;-73
2022/02/05 08:57:14;;;;;;;;;;;7.20;99.90;;;;;;5071509;28;19913;-74
2022/02/05 08:59:54;;;;;;;;;;;8.30;98.30;;;;;;5066960;28;20013;-74
2022/02/05 09:05:11;;;;;;;;;;;9.60;94.00;;;;;;5064000;28;20368;-75
2022/02/05 09:07:36;;;;;;;;;;;8.80;94.00;;;;;;5063665;28;19909;-73
2022/02/05 09:10:10;;;;;;;;;;;9.30;94.30;;;;;;5068477;28;19922;-74
2022/02/05 09:15:01;;;;;;;;;;;11.20;90.40;;;;;;5077308;28;19908;-73
2022/02/05 09:17:27;;;;;;;;;;;11.10;90.30;;;;;;5071557;28;19948;-74
2022/02/05 09:19:52;;;;;;;;;;;10.70;90.00;;;;;;5071501;28;19957;-74
2022/02/05 09:22:18;;;;;;;;;;;11.60;87.40;;;;;;5068461;28;19908;-74
2022/02/05 09:24:43;;;;;;;;;;;11.70;85.30;;;;;;5078566;28;19916;-75
2022/02/05 09:27:12;;;;;;;;;;;11.70;85.00;;;;;;5072940;28;19978;-73
2022/02/05 09:30:00;;;;;;;;;;;11.90;85.20;;;;;;5075378;28;19998;-75
2022/02/05 09:32:27;;;;;;;;;;;12.00;83.40;;;;;;5071569;28;19909;-76
2022/02/05 09:34:53;;;;;;;;;;;12.30;82.30;;;;;;5073895;28;19943;-74
2022/02/05 09:37:18;;;;;;;;;;;11.70;81.10;;;;;;5066755;28;19920;-76
2022/02/05 09:39:44;;;;;;;;;;;12.10;83.60;;;;;;5070436;28;19913;-75
2022/02/05 09:42:10;;;;;;;;;;;13.00;80.70;;;;;;5071436;28;20325;-74
2022/02/05 09:44:36;;;;;;;;;;;12.90;79.20;;;;;;5072157;28;19995;-74
2022/02/05 09:47:01;;;;;;;;;;;13.70;77.00;;;;;;5072547;28;20276;-74
2022/02/05 09:49:27;;;;;;;;;;;12.80;78.30;;;;;;5069564;28;19913;-74
2022/02/05 09:54:43;;;;;;;;;;;12.40;77.20;;;;;;5079621;28;19908;-74
2022/02/05 09:57:09;;;;;;;;;;;13.20;76.20;;;;;;5064849;28;19993;-74
2022/02/05 09:59:43;;;;;;;;;;;12.90;76.30;;;;;;5072444;28;19949;-77
2022/02/05 10:02:19;;;;;;;;;;;12.90;75.60;;;;;;5069720;28;19970;-74
2022/02/05 10:04:57;;;;;;;;;;;14.20;73.20;;;;;;5074549;28;19896;-74
2022/02/05 10:07:23;;;;;;;;;;;13.10;73.50;;;;;;5072912;28;19913;-75
2022/02/05 10:09:55;;;;;;;;;;;12.10;74.10;;;;;;5072980;28;19908;-74
2022/02/05 10:12:20;;;;;;;;;;;12.00;76.60;;;;;;5072812;28;19944;-74
2022/02/05 10:14:49;;;;;;;;;;;12.70;75.30;;;;;;5071532;28;20390;-74
2022/02/05 10:17:15;;;;;;;;;;;13.40;72.50;;;;;;5071699;28;19926;-75
2022/02/05 10:19:44;;;;;;;;;;;14.30;72.10;;;;;;5073562;28;19909;-74
2022/02/05 10:22:10;;;;;;;;;;;14.00;68.90;;;;;;5072997;28;19908;-74
2022/02/05 10:24:47;;;;;;;;;;;13.80;70.80;;;;;;5074585;28;19916;-75
2022/02/05 10:27:24;;;;;;;;;;;13.00;70.60;;;;;;5072650;28;20339;-74
2022/02/05 10:30:03;;;;;;;;;;;12.80;72.80;;;;;;5051647;28;19978;-74
2022/02/05 10:32:28;;;;;;;;;;;13.50;69.50;;;;;;5067979;28;19915;-74
2022/02/05 10:35:05;;;;;;;;;;;12.70;72.40;;;;;;5072434;28;19909;-74
2022/02/05 10:37:41;;;;;;;;;;;13.20;70.10;;;;;;5072538;28;19917;-74
2022/02/05 10:40:10;;;;;;;;;;;14.10;67.50;;;;;;5072908;28;19909;-74
2022/02/05 10:45:15;;;;;;;;;;;11.90;72.20;;;;;;5072532;28;19909;-74
2022/02/05 10:47:48;;;;;;;;;;;12.60;70.80;;;;;;5072527;28;19915;-74
2022/02/05 10:50:16;;;;;;;;;;;12.20;71.60;;;;;;5074924;28;19916;-76
2022/02/05 10:52:47;;;;;;;;;;;11.50;71.70;;;;;;5069983;28;19909;-76
2022/02/05 10:55:24;;;;;;;;;;;13.20;71.50;;;;;;5076115;28;19913;-75
2022/02/05 10:58:11;;;;;;;;;;;13.80;67.50;;;;;;5071686;28;19944;-74
2022/02/05 11:05:51;;;;;;;;;;;8.90;77.60;;;;;;5075350;28;19951;-74
2022/02/05 11:08:18;;;;;;;;;;;9.80;78.80;;;;;;5075551;28;19947;-75
2022/02/05 11:21:03;;;;;;;;;;;7.60;84.70;;;;;;5075505;28;19908;-74
2022/02/05 11:23:29;;;;;;;;;;;7.60;83.60;;;;;;5074292;28;19916;-74
2022/02/05 11:25:56;;;;;;;;;;;8.30;84.00;;;;;;5081335;28;19908;-76
2022/02/05 11:28:40;;;;;;;;;;;8.60;83.20;;;;;;5075214;28;19909;-74
2022/02/05 11:31:09;;;;;;;;;;;8.40;80.90;;;;;;5075172;28;19909;-74
2022/02/05 11:33:35;;;;;;;;;;;8.40;83.50;;;;;;5073889;28;19915;-77
2022/02/05 11:38:44;;;;;;;;;;;9.70;80.60;;;;;;5068698;28;20019;-76
2022/02/05 11:41:28;;;;;;;;;;;7.70;83.60;;;;;;5074371;28;20281;-74
2022/02/05 11:44:12;;;;;;;;;;;6.80;88.10;;;;;;5074103;28;19909;-74
2022/02/05 11:46:37;;;;;;;;;;;6.30;89.90;;;;;;5074190;28;19908;-75
2022/02/05 11:49:05;;;;;;;;;;;5.90;89.10;;;;;;5074193;28;19912;-73
2022/02/05 11:51:32;;;;;;;;;;;6.00;90.70;;;;;;5074066;28;19908;-73
2022/02/05 11:53:57;;;;;;;;;;;6.00;90.20;;;;;;5078290;28;19909;-76
2022/02/05 11:56:47;;;;;;;;;;;5.80;90.50;;;;;;5075521;28;19908;-73
2022/02/05 11:59:12;;;;;;;;;;;5.60;90.60;;;;;;5068868;28;20367;-73
2022/02/05 12:01:39;;;;;;;;;;;5.80;90.90;;;;;;5071678;28;19909;-73
2022/02/05 12:04:17;;;;;;;;;;;6.00;90.60;;;;;;5073971;28;19916;-74
2022/02/05 12:06:46;;;;;;;;;;;5.90;91.30;;;;;;5073951;28;20308;-74
2022/02/05 12:09:30;;;;;;;;;;;6.00;90.40;;;;;;5073689;28;19940;-73
2022/02/05 12:11:56;;;;;;;;;;;6.00;90.40;;;;;;5073952;28;19919;-76
2022/02/05 12:14:21;;;;;;;;;;;5.80;90.70;;;;;;5073703;28;20070;-74
2022/02/05 12:17:04;;;;;;;;;;;5.80;91.10;;;;;;5073629;28;19917;-75
2022/02/05 12:19:29;;;;;;;;;;;5.90;91.30;;;;;;5072326;28;19931;-75
2022/02/05 12:22:10;;;;;;;;;;;5.70;91.30;;;;;;5074058;28;19973;-74
2022/02/05 12:25:03;;;;;;;;;;;5.80;91.70;;;;;;5066653;28;19908;-74
2022/02/05 12:27:30;;;;;;;;;;;6.00;91.20;;;;;;5073634;28;19991;-73
2022/02/05 12:30:16;;;;;;;;;;;6.00;90.90;;;;;;5073602;28;20339;-74
2022/02/05 12:32:41;;;;;;;;;;;6.00;91.00;;;;;;5067605;28;19909;-73
2022/02/05 12:35:07;;;;;;;;;;;6.10;91.50;;;;;;5073312;28;20263;-73
2022/02/05 12:37:33;;;;;;;;;;;6.00;90.50;;;;;;5072228;28;19970;-73
2022/02/05 12:39:58;;;;;;;;;;;5.70;91.10;;;;;;5073741;28;19924;-76
2022/02/05 12:42:24;;;;;;;;;;;5.60;91.50;;;;;;5073365;28;19916;-73
2022/02/05 12:44:50;;;;;;;;;;;5.40;91.50;;;;;;5073321;28;19919;-73
2022/02/05 12:47:18;;;;;;;;;;;5.50;91.70;;;;;;5073465;28;19915;-73
2022/02/05 12:49:56;;;;;;;;;;;5.60;91.60;;;;;;5074793;28;19919;-73
2022/02/05 12:52:22;;;;;;;;;;;5.80;91.70;;;;;;5071699;28;19908;-73
2022/02/05 12:54:52;;;;;;;;;;;5.90;91.90;;;;;;5075068;28;20369;-72
2022/02/05 12:57:19;;;;;;;;;;;5.70;91.10;;;;;;5075576;28;19916;-72
2022/02/05 12:59:44;;;;;;;;;;;5.70;91.10;;;;;;5074846;28;19912;-72
2022/02/05 13:02:11;;;;;;;;;;;5.60;89.10;;;;;;5075893;28;20327;-72
2022/02/05 13:04:38;;;;;;;;;;;5.50;90.40;;;;;;5075395;28;19908;-72
2022/02/05 13:07:05;;;;;;;;;;;5.40;90.10;;;;;;5076004;28;20349;-73
2022/02/05 13:09:34;;;;;;;;;;;5.40;90.50;;;;;;5075237;28;20377;-75
2022/02/05 13:12:02;;;;;;;;;;;5.50;90.90;;;;;;5074400;28;19916;-73
2022/02/05 13:14:34;;;;;;;;;;;5.50;90.10;;;;;;5075105;28;19915;-74
2022/02/05 13:16:59;;;;;;;;;;;5.50;91.30;;;;;;5073006;28;19917;-73
2022/02/05 13:19:28;;;;;;;;;;;5.50;90.80;;;;;;5075469;28;20357;-72
2022/02/05 13:27:25;;;;;;;;;;;5.70;91.70;;;;;;5076107;28;19908;-73
2022/02/05 13:33:34;;;;;;;;;;;5.70;91.20;;;;;;5075593;28;19909;-74
2022/02/05 13:35:26;;;;;;;;;;;5.90;91.50;;;;;;5075943;28;19915;-72
2022/02/05 13:37:56;;;;;;;;;;;6.20;91.70;;;;;;5073389;28;20395;-74
2022/02/05 13:40:24;;;;;;;;;;;6.10;91.20;;;;;;5072864;28;19908;-74
2022/02/05 13:42:51;;;;;;;;;;;6.20;90.40;;;;;;5073126;28;19915;-75
2022/02/05 13:45:31;;;;;;;;;;;6.10;91.30;;;;;;5072260;28;20003;-75
2022/02/05 13:47:57;;;;;;;;;;;6.10;91.60;;;;;;5071045;28;19999;-75
2022/02/05 13:50:27;;;;;;;;;;;6.00;91.80;;;;;;5072241;28;19962;-75
2022/02/05 13:53:00;;;;;;;;;;;6.00;91.50;;;;;;5065911;28;19928;-73
2022/02/05 13:55:27;;;;;;;;;;;5.90;91.50;;;;;;5071262;28;19908;-73
2022/02/05 13:58:12;;;;;;;;;;;6.00;91.40;;;;;;5071870;28;19966;-73
2022/02/05 14:00:44;;;;;;;;;;;6.00;91.10;;;;;;5071972;28;20380;-73
2022/02/05 14:03:10;;;;;;;;;;;6.10;91.40;;;;;;5071183;28;19913;-72
2022/02/05 14:05:41;;;;;;;;;;;6.30;91.40;;;;;;5071289;28;20360;-73
2022/02/05 14:08:07;;;;;;;;;;;6.40;91.20;;;;;;5071451;28;19915;-72
2022/02/05 14:10:34;;;;;;;;;;;6.30;90.90;;;;;;5071397;28;19912;-74
2022/02/05 14:12:59;;;;;;;;;;;6.10;91.00;;;;;;5071457;28;19909;-73
2022/02/05 14:15:26;;;;;;;;;;;6.10;91.80;;;;;;5071119;28;19977;-74
2022/02/05 14:18:05;;;;;;;;;;;6.20;91.20;;;;;;5071337;28;20003;-73
2022/02/05 14:20:37;;;;;;;;;;;6.30;90.80;;;;;;5071165;28;19916;-73
2022/02/05 14:23:09;;;;;;;;;;;6.50;91.20;;;;;;5072799;28;19908;-73
2022/02/05 14:25:52;;;;;;;;;;;6.30;90.50;;;;;;5064688;28;19916;-74
2022/02/05 14:28:28;;;;;;;;;;;6.20;91.30;;;;;;5066994;28;20261;-73
2022/02/05 14:31:07;;;;;;;;;;;6.10;91.10;;;;;;5071131;28;19912;-74
2022/02/05 14:36:38;;;;;;;;;;;5.70;91.30;;;;;;5044519;28;19912;-73
2022/02/05 14:41:49;;;;;;;;;;;5.50;91.30;;;;;;5071271;28;19915;-72
2022/02/05 14:44:15;;;;;;;;;;;5.30;91.70;;;;;;5070542;28;19912;-73
2022/02/05 14:46:41;;;;;;;;;;;5.20;91.90;;;;;;5070987;28;19916;-73
2022/02/05 14:49:07;;;;;;;;;;;5.20;92.00;;;;;;5067718;28;19909;-73
2022/02/05 14:51:33;;;;;;;;;;;5.00;92.20;;;;;;5067534;28;19951;-74
2022/02/05 14:53:59;;;;;;;;;;;5.00;92.00;;;;;;5072945;28;20262;-73
2022/02/05 14:56:25;;;;;;;;;;;5.00;91.90;;;;;;5070503;28;19959;-73
2022/02/05 14:58:50;;;;;;;;;;;4.90;91.50;;;;;;5071449;28;20346;-73
2022/02/05 15:01:20;;;;;;;;;;;4.80;91.70;;;;;;5071309;28;19962;-73
2022/02/05 15:03:47;;;;;;;;;;;4.80;92.50;;;;;;5071667;28;20284;-73
2022/02/05 15:06:18;;;;;;;;;;;4.80;92.50;;;;;;5071188;28;20273;-73
2022/02/05 15:08:44;;;;;;;;;;;4.80;92.10;;;;;;5071526;28;19916;-73
2022/02/05 15:11:10;;;;;;;;;;;4.80;92.50;;;;;;5071587;28;19909;-73
2022/02/05 15:13:35;;;;;;;;;;;4.70;92.40;;;;;;5071498;28;20313;-73
2022/02/05 15:16:02;;;;;;;;;;;4.70;92.50;;;;;;5071316;28;20254;-73
2022/02/05 15:18:28;;;;;;;;;;;4.60;92.60;;;;;;5071559;28;19913;-73
2022/02/05 15:20:53;;;;;;;;;;;4.60;92.20;;;;;;5071061;28;20345;-73
2022/02/05 15:23:19;;;;;;;;;;;4.50;92.60;;;;;;5070964;28;19909;-73
2022/02/05 15:25:45;;;;;;;;;;;4.40;93.10;;;;;;5071416;28;19908;-73
2022/02/05 15:28:10;;;;;;;;;;;4.50;93.40;;;;;;5071266;28;20250;-74
2022/02/05 15:30:36;;;;;;;;;;;4.40;94.00;;;;;;5071465;28;19966;-72
2022/02/05 15:33:03;;;;;;;;;;;4.40;93.30;;;;;;5069948;28;19909;-72
2022/02/05 15:35:29;;;;;;;;;;;4.30;93.80;;;;;;5070992;28;19978;-73
2022/02/05 15:38:02;;;;;;;;;;;4.20;93.20;;;;;;5074263;28;20365;-74
2022/02/05 15:43:41;;;;;;;;;;;4.00;93.70;;;;;;5074640;28;19915;-73
2022/02/05 15:46:07;;;;;;;;;;;4.00;93.00;;;;;;5075000;28;19966;-73
2022/02/05 15:48:33;;;;;;;;;;;3.90;94.00;;;;;;5074922;28;19923;-72
2022/02/05 15:50:59;;;;;;;;;;;3.80;93.90;;;;;;5075108;28;19988;-72
2022/02/05 15:53:25;;;;;;;;;;;3.70;94.30;;;;;;5076212;28;19908;-73
2022/02/05 15:55:51;;;;;;;;;;;3.70;94.10;;;;;;5074752;28;19995;-72
2022/02/05 15:58:22;;;;;;;;;;;3.70;94.10;;;;;;5075209;28;20073;-73
2022/02/05 16:00:47;;;;;;;;;;;3.80;94.00;;;;;;5074313;28;19915;-74
2022/02/05 16:03:13;;;;;;;;;;;3.60;94.40;;;;;;5074858;28;19912;-74
2022/02/05 16:05:40;;;;;;;;;;;3.40;94.80;;;;;;5074803;28;20297;-74
2022/02/05 16:08:06;;;;;;;;;;;3.40;94.60;;;;;;5073304;28;20365;-73
2022/02/05 16:10:32;;;;;;;;;;;3.50;94.70;;;;;;5073949;28;19987;-73
2022/02/05 16:12:57;;;;;;;;;;;3.40;94.90;;;;;;5074029;28;19915;-73
2022/02/05 16:15:23;;;;;;;;;;;3.20;95.40;;;;;;5073801;28;19913;-73
2022/02/05 16:17:51;;;;;;;;;;;3.10;95.70;;;;;;5073655;28;19912;-73
2022/02/05 16:20:18;;;;;;;;;;;3.10;95.70;;;;;;5073592;28;19962;-74
2022/02/05 16:22:45;;;;;;;;;;;3.00;96.20;;;;;;5067633;28;19909;-73
2022/02/05 16:25:12;;;;;;;;;;;3.00;96.10;;;;;;5076841;28;19916;-72
2022/02/05 16:27:38;;;;;;;;;;;2.90;96.50;;;;;;5074091;28;19913;-74
2022/02/05 16:30:05;;;;;;;;;;;2.80;96.50;;;;;;5074783;28;20268;-72
2022/02/05 16:32:31;;;;;;;;;;;2.70;96.70;;;;;;5074101;28;19908;-73
2022/02/05 16:34:57;;;;;;;;;;;2.50;97.10;;;;;;5073427;28;20455;-73
2022/02/05 16:37:23;;;;;;;;;;;2.60;97.00;;;;;;5073616;28;19924;-72
2022/02/05 16:39:52;;;;;;;;;;;2.50;97.10;;;;;;5073396;28;19908;-73
2022/02/05 16:42:18;;;;;;;;;;;2.40;97.40;;;;;;5073070;28;19920;-72
2022/02/05 16:44:43;;;;;;;;;;;2.30;97.80;;;;;;5073131;28;19908;-72
2022/02/05 16:47:10;;;;;;;;;;;2.10;98.30;;;;;;5072645;28;19935;-72
2022/02/05 16:49:38;;;;;;;;;;;2.00;98.20;;;;;;5072970;28;19908;-73
2022/02/05 16:52:04;;;;;;;;;;;1.90;98.80;;;;;;5073781;28;19915;-72
2022/02/05 16:54:29;;;;;;;;;;;1.80;98.80;;;;;;5077380;28;20276;-72
2022/02/05 16:56:55;;;;;;;;;;;1.80;98.90;;;;;;5073224;28;19912;-73
2022/02/05 16:59:20;;;;;;;;;;;1.80;98.80;;;;;;5073329;28;19979;-75
2022/02/05 17:01:46;;;;;;;;;;;1.60;99.20;;;;;;5074365;28;19909;-73
2022/02/05 17:04:14;;;;;;;;;;;1.30;99.90;;;;;;5073869;28;19931;-73
2022/02/05 17:06:39;;;;;;;;;;;1.20;99.90;;;;;;5072729;28;19908;-73
2022/02/05 17:09:06;;;;;;;;;;;1.30;99.90;;;;;;5072384;28;19982;-75
2022/02/05 17:11:33;;;;;;;;;;;1.10;99.90;;;;;;5071076;28;19912;-73
2022/02/05 17:13:58;;;;;;;;;;;1.20;99.90;;;;;;5070969;28;19909;-73
2022/02/05 17:16:24;;;;;;;;;;;1.40;99.90;;;;;;5072135;28;20281;-73
2022/02/05 17:18:49;;;;;;;;;;;1.30;99.90;;;;;;5072312;28;19913;-73
2022/02/05 17:21:15;;;;;;;;;;;1.20;99.90;;;;;;5071263;28;19916;-75
2022/02/05 17:23:42;;;;;;;;;;;1.10;99.90;;;;;;5068674;28;19915;-74
2022/02/05 17:26:12;;;;;;;;;;;1.10;99.90;;;;;;5071976;28;19950;-73
2022/02/05 17:28:38;;;;;;;;;;;1.00;99.90;;;;;;5070991;28;19948;-73
2022/02/05 17:31:04;;;;;;;;;;;1.10;99.90;;;;;;5073028;28;20343;-73
2022/02/05 17:33:29;;;;;;;;;;;1.10;99.90;;;;;;5072502;28;19915;-73